Terminal Aerodrome Forecast
Issued by NWS

Current Version | Previous Version | Text Only | Print | Product List | Glossary Off
Versions: 1 2 3 4 5 6 7 8 9 10 11 12 13 14 15 16 17 18 19 20 21

000
FTUS41 KRLX 151738
TAFCKB
TAF
KCKB 151738Z 1518/1618 17007KT P6SM BKN250
     FM160100 20005KT 4SM SHRA BR SCT025 BKN045
     FM160200 21005KT P6SM VCSH SCT025 OVC035
     FM160400 21005KT P6SM OVC025
     FM160700 23006KT P6SM BKN015
     FM160900 24008G14KT P6SM BKN030
     FM161200 26010G18KT P6SM BKN030=

USA.gov is the U.S. government's official web portal to all federal, state and local government web resources and services.